createdAt,value
2018-10-05T00:00:09.759Z,4
2018-10-05T00:01:00.106Z,4
2018-10-05T00:01:50.432Z,4
2018-10-05T00:02:41.067Z,4
2018-10-05T00:03:30.562Z,4
2018-10-05T00:04:20.621Z,3.9
2018-10-05T00:05:10.406Z,3.9
2018-10-05T00:06:00.228Z,3.9
2018-10-05T00:06:50.533Z,3.9
2018-10-05T00:25:09.486Z,3.6
2018-10-05T00:25:59.550Z,3.6
2018-10-05T00:26:49.591Z,3.6
2018-10-05T00:27:39.375Z,3.6
2018-10-05T00:28:29.433Z,3.6
2018-10-05T00:29:19.760Z,3.5
2018-10-05T00:30:09.770Z,3.6
2018-10-05T00:30:59.587Z,3.5
2018-10-05T00:31:49.924Z,3.5
2018-10-05T00:32:39.740Z,3.5
2018-10-05T00:33:30.057Z,3.4
2018-10-05T00:34:20.104Z,3.4
2018-10-05T00:35:10.187Z,3.4
2018-10-05T00:35:59.969Z,3.4
2018-10-05T00:36:50.028Z,3.4
2018-10-05T00:37:40.379Z,3.4
2018-10-05T00:38:30.418Z,3.4
2018-10-05T00:39:20.891Z,3.3
2018-10-05T00:40:10.536Z,3.3
2018-10-05T00:41:00.613Z,3.3
2018-10-05T00:41:50.913Z,3.3
2018-10-05T00:42:40.742Z,3.3
2018-10-05T00:43:30.519Z,3.3
2018-10-05T00:44:20.568Z,3.2
2018-10-05T00:45:11.159Z,3.3
2018-10-05T00:46:00.993Z,3.2
2018-10-05T00:46:51.040Z,3.2
2018-10-05T00:47:41.113Z,3.1
2018-10-05T00:48:30.891Z,3.1
2018-10-05T00:49:21.211Z,3.1
2018-10-05T00:50:11.269Z,3.1
2018-10-05T00:51:01.353Z,3.1
2018-10-05T00:51:51.397Z,3.1
2018-10-05T00:52:41.748Z,3.1
2018-10-05T00:53:32.077Z,3.1
2018-10-05T00:54:21.035Z,3
2018-10-05T00:55:11.668Z,3.1
2018-10-05T00:56:01.450Z,3
2018-10-05T00:56:51.503Z,3
2018-10-05T00:57:41.899Z,3
2018-10-05T00:58:31.925Z,2.9
2018-10-05T00:59:21.973Z,2.9
2018-10-05T01:00:12.010Z,2.9
2018-10-05T01:01:01.532Z,2.9
2018-10-05T01:01:52.555Z,2.9
2018-10-05T01:02:42.221Z,2.9
2018-10-05T01:03:32.531Z,2.9
2018-10-05T01:04:22.063Z,2.9
2018-10-05T01:05:27.047Z,2.9
2018-10-05T01:06:02.463Z,2.9
2018-10-05T01:06:51.956Z,2.8
2018-10-05T01:07:42.585Z,2.8
2018-10-05T01:08:32.351Z,2.8
2018-10-05T01:09:22.717Z,2.8
2018-10-05T01:10:12.755Z,2.8
2018-10-05T01:11:02.839Z,2.8
2018-10-05T01:11:52.887Z,2.8
2018-10-05T01:12:42.972Z,2.8
2018-10-05T01:13:33.170Z,2.7
2018-10-05T01:14:22.822Z,2.7
2018-10-05T01:15:12.860Z,2.7
2018-10-05T01:16:03.219Z,2.7
2018-10-05T01:16:53.257Z,2.7
2018-10-05T01:17:43.329Z,2.7
2018-10-05T01:18:33.383Z,2.6
2018-10-05T01:19:23.176Z,2.6
2018-10-05T01:20:12.931Z,2.6
2018-10-05T01:21:03.569Z,2.6
2018-10-05T01:21:53.614Z,2.6
2018-10-05T01:22:43.430Z,2.6
2018-10-05T01:23:33.748Z,2.6
2018-10-05T01:24:23.259Z,2.5
2018-10-05T01:25:13.594Z,2.6
2018-10-05T01:26:03.939Z,2.6
2018-10-05T01:26:54.003Z,2.5
2018-10-05T01:27:44.057Z,2.5
2018-10-05T01:28:34.161Z,2.5
2018-10-05T01:29:23.904Z,2.5
2018-10-05T01:30:13.682Z,2.5
2018-10-05T01:31:04.304Z,2.4
2018-10-05T01:31:54.697Z,2.4
2018-10-05T01:32:44.428Z,2.4
2018-10-05T01:33:34.509Z,2.4
2018-10-05T01:34:24.551Z,2.4
2018-10-05T01:35:14.610Z,2.4
2018-10-05T01:36:04.403Z,2.4
2018-10-05T01:36:54.741Z,2.4
2018-10-05T01:37:44.793Z,2.4
2018-10-05T01:38:34.891Z,2.3
2018-10-05T01:39:24.917Z,2.4
2018-10-05T01:40:14.976Z,2.4
2018-10-05T01:41:05.058Z,2.3
2018-10-05T01:41:55.127Z,2.3
2018-10-05T01:42:45.157Z,2.3
2018-10-05T01:43:35.253Z,2.3
2018-10-05T01:44:25.341Z,2.3
2018-10-05T01:45:15.367Z,2.3
2018-10-05T01:46:05.428Z,2.3
2018-10-05T01:46:55.178Z,2.3
2018-10-05T01:47:45.251Z,2.3
2018-10-05T01:48:35.322Z,2.3
2018-10-05T01:49:25.664Z,2.3
2018-10-05T01:50:15.726Z,2.3
2018-10-05T01:51:05.223Z,2.3
2018-10-05T01:51:55.860Z,2.3
2018-10-05T01:52:45.919Z,2.3
2018-10-05T01:53:35.995Z,2.3
2018-10-05T01:54:26.052Z,2.3
2018-10-05T01:55:16.119Z,2.3
2018-10-05T01:56:05.870Z,2.3
2018-10-05T01:56:56.480Z,2.3
2018-10-05T01:57:46.300Z,2.3
2018-10-05T01:58:36.065Z,2.3
2018-10-05T01:59:26.636Z,2.2
2018-10-05T02:00:16.467Z,2.3
2018-10-05T02:01:06.567Z,2.3
2018-10-05T02:01:56.902Z,2.2
2018-10-05T02:02:46.370Z,2.3
2018-10-05T02:03:36.725Z,2.3
2018-10-05T02:04:26.474Z,2.2
2018-10-05T02:05:16.265Z,2.2
2018-10-05T02:06:06.603Z,2.2
2018-10-05T02:06:56.674Z,2.2
2018-10-05T02:07:47.013Z,2.2
2018-10-05T02:08:36.512Z,2.2
2018-10-05T02:09:27.134Z,2.2
2018-10-05T02:10:16.936Z,2.2
2018-10-05T02:11:07.267Z,2.2
2018-10-05T02:11:57.327Z,2.2
2018-10-05T02:12:46.827Z,2.2
2018-10-05T02:13:37.442Z,2.1
2018-10-05T02:14:27.217Z,2.2
2018-10-05T02:15:17.301Z,2.1
2018-10-05T02:16:07.630Z,2.1
2018-10-05T02:16:57.399Z,2.1
2018-10-05T02:17:47.738Z,2.1
2018-10-05T02:18:37.824Z,2.1
2018-10-05T02:19:27.859Z,2.1
2018-10-05T02:20:17.931Z,2.1
2018-10-05T02:21:07.444Z,2.1
2018-10-05T02:21:58.061Z,2.1
2018-10-05T02:22:48.108Z,2.1
2018-10-05T02:23:38.198Z,2.1
2018-10-05T02:24:27.961Z,2.1
2018-10-05T02:25:18.013Z,2.1
2018-10-05T02:26:08.361Z,2.1
2018-10-05T02:26:57.878Z,2.1
2018-10-05T02:27:48.514Z,2.1
2018-10-05T02:28:38.561Z,2.1
2018-10-05T02:29:28.615Z,2.1
2018-10-05T02:30:18.713Z,2.1
2018-10-05T02:31:08.728Z,2.1
2018-10-05T02:31:58.806Z,2.1
2018-10-05T02:32:48.961Z,2.1
2018-10-05T02:33:38.928Z,2.1
2018-10-05T02:34:28.990Z,2.1
2018-10-05T02:35:19.065Z,2.1
2018-10-05T02:36:09.127Z,2.1
2018-10-05T02:36:58.892Z,2.1
2018-10-05T02:37:49.249Z,2.1
2018-10-05T02:38:39.030Z,2.1
2018-10-05T02:39:29.072Z,2.1
2018-10-05T02:40:19.143Z,2
2018-10-05T02:41:09.197Z,2.1
2018-10-05T02:41:59.548Z,2
2018-10-05T02:42:49.339Z,2.1
2018-10-05T02:43:39.660Z,2
2018-10-05T02:44:29.737Z,2.1
2018-10-05T02:45:19.769Z,2
2018-10-05T02:46:09.864Z,2
2018-10-05T02:46:59.899Z,2
2018-10-05T02:47:49.942Z,2
2018-10-05T02:48:40.035Z,2
2018-10-05T02:49:30.090Z,1.9
2018-10-05T02:50:20.174Z,2
2018-10-05T02:51:10.204Z,1.9
2018-10-05T02:52:00.285Z,1.9
2018-10-05T02:52:50.329Z,1.9
2018-10-05T02:53:40.344Z,1.9
2018-10-05T02:54:30.456Z,1.9
2018-10-05T02:55:20.236Z,1.9
2018-10-05T02:56:10.592Z,1.9
2018-10-05T02:57:00.374Z,1.9
2018-10-05T02:57:50.426Z,1.9
2018-10-05T02:58:40.509Z,1.9
2018-10-05T02:59:30.837Z,1.9
2018-10-05T03:00:20.881Z,1.9
2018-10-05T03:01:10.946Z,1.9
2018-10-05T03:02:01.024Z,1.8
2018-10-05T03:02:50.806Z,1.8
2018-10-05T03:03:41.150Z,1.8
2018-10-05T03:04:30.915Z,1.8
2018-10-05T03:05:21.274Z,1.8
2018-10-05T03:06:11.348Z,1.8
2018-10-05T03:07:01.100Z,1.8
2018-10-05T03:07:51.437Z,1.8
2018-10-05T03:08:41.823Z,1.8
2018-10-05T03:09:31.530Z,1.8
2018-10-05T03:10:21.630Z,1.8
2018-10-05T03:11:10.840Z,1.8
2018-10-05T03:12:01.777Z,1.8
2018-10-05T03:12:51.837Z,1.7
2018-10-05T03:13:41.874Z,1.8
2018-10-05T03:14:31.951Z,1.8
2018-10-05T03:15:21.740Z,1.7
2018-10-05T03:16:11.779Z,1.7
2018-10-05T03:17:01.846Z,1.7
2018-10-05T03:17:51.908Z,1.7
2018-10-05T03:18:42.267Z,1.7
2018-10-05T03:19:31.747Z,1.6
2018-10-05T03:20:22.104Z,1.6
2018-10-05T03:21:11.862Z,1.6
2018-10-05T03:22:02.512Z,1.6
2018-10-05T03:22:52.552Z,1.6
2018-10-05T03:23:42.324Z,1.6
2018-10-05T03:24:32.681Z,1.6
2018-10-05T03:25:23.853Z,1.6
2018-10-05T03:26:12.794Z,1.6
2018-10-05T03:27:02.585Z,1.6
2018-10-05T03:27:52.927Z,1.6
2018-10-05T03:28:42.986Z,1.6
2018-10-05T03:29:33.043Z,1.5
2018-10-05T03:30:23.417Z,1.5
2018-10-05T03:31:12.884Z,1.5
2018-10-05T03:32:03.254Z,1.5
2018-10-05T03:32:53.279Z,1.5
2018-10-05T03:33:43.079Z,1.5
2018-10-05T03:34:33.136Z,1.5
2018-10-05T03:35:23.481Z,1.5
2018-10-05T03:36:13.771Z,1.4
2018-10-05T03:37:03.613Z,1.5
2018-10-05T03:37:53.651Z,1.4
2018-10-05T03:38:43.716Z,1.4
2018-10-05T03:39:33.826Z,1.4
2018-10-05T03:40:23.849Z,1.4
2018-10-05T03:41:13.894Z,1.4
2018-10-05T03:42:03.955Z,1.4
2018-10-05T03:42:53.743Z,1.4
2018-10-05T03:43:44.086Z,1.4
2018-10-05T03:44:34.168Z,1.4
2018-10-05T03:45:24.213Z,1.4
2018-10-05T03:46:14.296Z,1.4
2018-10-05T03:47:04.340Z,1.4
2018-10-05T03:47:54.388Z,1.4
2018-10-05T03:48:44.180Z,1.4
2018-10-05T03:49:33.965Z,1.4
2018-10-05T03:50:24.292Z,1.4
2018-10-05T03:51:14.665Z,1.3
2018-10-05T03:52:04.427Z,1.3
2018-10-05T03:52:54.775Z,1.3
2018-10-05T03:53:44.838Z,1.3
2018-10-05T03:54:34.897Z,1.3
2018-10-05T03:55:24.970Z,1.3
2018-10-05T03:56:15.030Z,1.3
2018-10-05T03:57:04.804Z,1.3
2018-10-05T03:57:54.909Z,1.3
2018-10-05T03:58:45.187Z,1.3
2018-10-05T03:59:34.970Z,1.3
2018-10-05T04:00:25.048Z,1.3
2018-10-05T04:01:15.362Z,1.3
2018-10-05T04:02:05.165Z,1.2
2018-10-05T04:02:55.229Z,1.2
2018-10-05T04:03:45.279Z,1.2
2018-10-05T04:04:35.354Z,1.2
2018-10-05T04:05:25.716Z,1.2
2018-10-05T04:06:15.478Z,1.2
2018-10-05T04:07:05.836Z,1.2
2018-10-05T04:07:55.854Z,1.1
2018-10-05T04:08:45.668Z,1.2
2018-10-05T04:09:36.009Z,1.1
2018-10-05T04:10:25.217Z,1.1
2018-10-05T04:11:16.142Z,1.1
2018-10-05T04:12:05.907Z,1.1
2018-10-05T04:12:55.976Z,1.1
2018-10-05T04:13:46.312Z,1.1
2018-10-05T04:14:36.358Z,1.1
2018-10-05T04:15:26.431Z,1.1
2018-10-05T04:16:16.493Z,1.1
2018-10-05T04:17:06.579Z,1.1
2018-10-05T04:17:56.321Z,1.1
2018-10-05T04:18:46.393Z,1.1
2018-10-05T04:19:36.728Z,1
2018-10-05T04:20:26.516Z,1
2018-10-05T04:21:16.884Z,1
2018-10-05T04:22:06.941Z,1
2018-10-05T04:22:56.701Z,1
2018-10-05T04:23:47.034Z,1
2018-10-05T04:24:36.622Z,0.9
2018-10-05T04:25:26.873Z,1
2018-10-05T04:26:18.758Z,0.9
2018-10-05T04:27:07.503Z,0.9
2018-10-05T04:27:56.862Z,0.9
2018-10-05T04:28:47.401Z,0.9
2018-10-05T04:29:37.476Z,0.9
2018-10-05T04:30:27.523Z,0.9
2018-10-05T04:31:17.118Z,0.9
2018-10-05T04:32:07.181Z,0.9
2018-10-05T04:32:57.243Z,0.9
2018-10-05T04:33:47.281Z,0.9
2018-10-05T04:34:37.340Z,0.9
2018-10-05T04:35:27.597Z,0.9
2018-10-05T04:36:17.472Z,0.9
2018-10-05T04:54:30.759Z,0.9
2018-10-05T04:55:21.575Z,0.9
2018-10-05T04:56:11.647Z,0.9
2018-10-05T04:57:01.551Z,0.9
2018-10-05T04:57:50.986Z,0.9
2018-10-05T04:58:41.234Z,0.9
2018-10-05T04:59:31.869Z,1
2018-10-05T05:00:21.918Z,1
2018-10-05T05:01:11.494Z,1
2018-10-05T05:02:01.556Z,1
2018-10-05T05:02:52.109Z,1
2018-10-05T05:03:41.984Z,1.1
2018-10-05T05:04:32.222Z,1.1
2018-10-05T05:05:21.516Z,1.1
2018-10-05T05:06:12.069Z,1.1
2018-10-05T05:07:02.424Z,1.1
2018-10-05T05:07:52.474Z,1.2
2018-10-05T05:08:41.756Z,1.2
2018-10-05T05:09:32.021Z,1.2
2018-10-05T05:10:22.171Z,1.3
2018-10-05T05:11:12.710Z,1.3
2018-10-05T05:12:02.437Z,1.3
2018-10-05T05:12:52.358Z,1.3
2018-10-05T05:13:42.414Z,1.4
2018-10-05T05:14:32.491Z,1.4
2018-10-05T05:15:22.543Z,1.4
2018-10-05T05:16:12.328Z,1.4
2018-10-05T05:17:02.653Z,1.5
2018-10-05T05:17:52.721Z,1.6
2018-10-05T05:18:42.785Z,1.6
2018-10-05T05:19:32.996Z,1.7
2018-10-05T05:20:22.906Z,1.8
2018-10-05T05:21:12.691Z,1.8
2018-10-05T05:22:03.048Z,1.9
2018-10-05T05:22:53.090Z,1.9
2018-10-05T05:23:43.157Z,2.1
2018-10-05T05:24:32.935Z,2.1
2018-10-05T05:25:23.465Z,2.2
2018-10-05T05:26:13.813Z,2.3
2018-10-05T05:27:03.869Z,2.4
2018-10-05T05:27:53.939Z,2.5
2018-10-05T05:28:43.998Z,2.6
2018-10-05T05:29:34.054Z,2.8
2018-10-05T05:30:24.107Z,2.8
2018-10-05T05:31:14.208Z,2.9
2018-10-05T05:32:03.976Z,3.1
2018-10-05T05:32:54.347Z,3.2
2018-10-05T05:33:45.001Z,3.3
2018-10-05T05:34:33.863Z,3.4
2018-10-05T05:35:24.471Z,3.6
2018-10-05T05:36:14.561Z,3.7
2018-10-05T05:37:04.591Z,3.9
2018-10-05T05:37:54.678Z,4
2018-10-05T05:38:44.721Z,4.2
2018-10-05T05:39:34.527Z,4.3
2018-10-05T05:40:25.478Z,4.5
2018-10-05T05:41:14.633Z,4.7
2018-10-05T05:42:04.962Z,4.8
2018-10-05T05:42:54.745Z,5
2018-10-05T05:43:45.372Z,5.1
2018-10-05T05:44:35.176Z,5.3
2018-10-05T05:45:24.939Z,5.5
2018-10-05T05:46:15.278Z,5.7
2018-10-05T05:47:05.340Z,5.9
2018-10-05T05:47:55.415Z,6.1
2018-10-05T05:48:45.465Z,6.3
2018-10-05T05:49:35.250Z,6.4
2018-10-05T05:50:25.305Z,6.6
2018-10-05T05:51:15.370Z,6.9
2018-10-05T05:52:05.750Z,7.1
2018-10-05T05:52:55.511Z,7.3
2018-10-05T05:53:46.083Z,7.5
2018-10-05T05:54:36.352Z,7.8
2018-10-05T05:55:25.952Z,8
2018-10-05T05:56:16.024Z,8.2
2018-10-05T05:57:05.505Z,8.4
2018-10-05T05:57:55.857Z,8.7
2018-10-05T05:58:46.187Z,8.9
2018-10-05T05:59:35.984Z,9.2
2018-10-05T06:00:26.348Z,9.4
2018-10-05T06:01:15.969Z,9.7
2018-10-05T06:02:06.436Z,9.9
2018-10-05T06:02:56.535Z,10.3
2018-10-05T06:03:46.612Z,10.4
2018-10-05T06:04:36.621Z,7.7
2018-10-05T06:05:26.699Z,16.7
2018-10-05T06:06:16.759Z,27.5
2018-10-05T06:07:06.819Z,28.1
2018-10-05T06:07:56.924Z,30.6
2018-10-05T06:08:46.966Z,31.3
2018-10-05T06:09:36.987Z,31.4
2018-10-05T06:10:27.054Z,31.4
2018-10-05T06:11:16.824Z,31.3
2018-10-05T06:12:06.601Z,30.9
2018-10-05T06:12:56.956Z,30.7
2018-10-05T06:13:47.042Z,30.5
2018-10-05T06:14:37.371Z,30.3
2018-10-05T06:15:27.734Z,30.1
2018-10-05T06:16:17.642Z,30
2018-10-05T06:17:07.552Z,29.9
2018-10-05T06:17:57.608Z,29.8
2018-10-05T06:18:47.657Z,29.8
2018-10-05T06:19:37.779Z,29.6
2018-10-05T06:20:27.846Z,29.6
2018-10-05T06:21:17.588Z,30.4
2018-10-05T06:22:08.276Z,30.7
2018-10-05T06:22:57.706Z,32.3
2018-10-05T06:23:47.756Z,31.9
2018-10-05T06:24:38.084Z,34.4
2018-10-05T06:25:28.183Z,36.2
2018-10-05T06:26:17.923Z,36.6
2018-10-05T06:27:08.279Z,36.2
2018-10-05T06:27:58.358Z,35.7
2018-10-05T06:28:48.398Z,35.5
2018-10-05T06:29:38.463Z,35.6
2018-10-05T06:30:28.784Z,35.9
2018-10-05T06:31:19.118Z,36.3
2018-10-05T06:32:08.441Z,36.6
2018-10-05T06:32:58.516Z,36.9
2018-10-05T06:33:48.785Z,37
2018-10-05T06:34:39.089Z,37.1
2018-10-05T06:35:28.613Z,37.2
2018-10-05T06:36:18.682Z,37.3
2018-10-05T06:37:09.299Z,37.5
2018-10-05T06:37:58.824Z,37.8
2018-10-05T06:38:48.840Z,37.9
2018-10-05T06:39:39.511Z,38.1
2018-10-05T06:40:29.263Z,38.3
2018-10-05T06:41:19.035Z,38.4
2018-10-05T06:42:10.021Z,38.6
2018-10-05T06:42:59.159Z,38.8
2018-10-05T06:43:49.494Z,38.9
2018-10-05T06:44:39.002Z,39.1
2018-10-05T06:45:29.634Z,39.2
2018-10-05T06:46:19.419Z,39.4
2018-10-05T06:47:09.189Z,39.5
2018-10-05T06:47:59.799Z,39.7
2018-10-05T06:48:49.862Z,39.8
2018-10-05T06:49:39.644Z,40
2018-10-05T06:50:29.722Z,40.2
2018-10-05T06:51:20.049Z,40.3
2018-10-05T06:52:09.830Z,40.5
2018-10-05T06:52:59.891Z,40.6
2018-10-05T06:53:49.962Z,40.8
2018-10-05T06:54:40.035Z,40.9
2018-10-05T06:55:30.082Z,41.1
2018-10-05T06:56:20.419Z,41.3
2018-10-05T06:57:10.471Z,41.4
2018-10-05T06:58:00.797Z,41.6
2018-10-05T06:58:50.609Z,41.7
2018-10-05T06:59:40.651Z,41.9
2018-10-05T07:00:30.721Z,42.1
2018-10-05T07:01:20.650Z,42.2
2018-10-05T07:02:10.861Z,42.4
2018-10-05T07:03:00.626Z,42.5
2018-10-05T07:03:50.691Z,42.7
2018-10-05T07:04:40.757Z,42.8
2018-10-05T07:05:31.088Z,43
2018-10-05T07:06:21.146Z,43.1
2018-10-05T07:07:10.921Z,43.3
2018-10-05T07:08:01.602Z,43.4
2018-10-05T07:08:51.055Z,43.6
2018-10-05T07:09:41.421Z,43.8
2018-10-05T07:10:31.173Z,43.9
2018-10-05T07:11:21.012Z,44.1
2018-10-05T07:12:11.560Z,44.2
2018-10-05T07:13:01.635Z,44.4
2018-10-05T07:13:51.715Z,44.5
2018-10-05T07:14:41.485Z,44.7
2018-10-05T07:15:31.810Z,44.8
2018-10-05T07:16:21.924Z,45
2018-10-05T07:17:12.189Z,45.1
2018-10-05T07:18:02.272Z,45.3
2018-10-05T07:18:52.105Z,45.5
2018-10-05T07:19:42.137Z,45.7
2018-10-05T07:20:31.922Z,45.8
2018-10-05T07:21:22.395Z,45.9
2018-10-05T07:22:12.060Z,46.1
2018-10-05T07:23:02.088Z,46.3
2018-10-05T07:23:52.152Z,46.4
2018-10-05T07:24:42.527Z,46.6
2018-10-05T07:25:32.277Z,46.8
2018-10-05T07:26:22.629Z,46.9
2018-10-05T07:27:12.729Z,47.1
2018-10-05T07:28:02.850Z,47.3
2018-10-05T07:28:52.827Z,47.4
2018-10-05T07:29:43.126Z,47.6
2018-10-05T07:30:32.969Z,47.8
2018-10-05T07:31:22.698Z,47.9
2018-10-05T07:32:13.065Z,48.1
2018-10-05T07:33:03.132Z,48.3
2018-10-05T07:33:52.901Z,48.4
2018-10-05T07:34:43.064Z,48.6
2018-10-05T07:35:33.316Z,48.8
2018-10-05T07:36:23.448Z,48.9
2018-10-05T07:37:13.657Z,49.1
2018-10-05T07:38:02.927Z,49.3
2018-10-05T07:38:53.561Z,49.4
2018-10-05T07:39:43.339Z,49.6
2018-10-05T07:40:33.678Z,49.8
2018-10-05T07:41:23.444Z,49.9
2018-10-05T07:42:13.531Z,50.1
2018-10-05T07:43:04.206Z,50.3
2018-10-05T07:43:53.883Z,50.4
2018-10-05T07:44:43.975Z,50.6
2018-10-05T07:45:33.767Z,50.7
2018-10-05T07:46:24.118Z,50.8
2018-10-05T07:47:13.890Z,51.1
2018-10-05T07:48:04.248Z,51.2
2018-10-05T07:48:54.539Z,51.4
2018-10-05T07:49:44.353Z,51.6
2018-10-05T07:50:34.413Z,51.7
2018-10-05T07:51:24.465Z,51.8
2018-10-05T07:52:14.260Z,52
2018-10-05T07:53:04.598Z,52.2
2018-10-05T07:53:54.903Z,52.3
2018-10-05T07:54:44.178Z,52.5
2018-10-05T07:55:34.777Z,52.7
2018-10-05T07:56:24.872Z,52.9
2018-10-05T07:57:14.982Z,53
2018-10-05T07:58:04.402Z,53.2
2018-10-05T07:58:55.047Z,53.4
2018-10-05T07:59:44.816Z,53.5
2018-10-05T08:00:35.150Z,53.6
2018-10-05T08:01:25.220Z,53.8
2018-10-05T08:02:15.269Z,53.9
2018-10-05T08:03:04.767Z,54.1
2018-10-05T08:03:55.407Z,54.2
2018-10-05T08:04:45.451Z,54.4
2018-10-05T08:05:35.238Z,54.6
2018-10-05T08:06:25.599Z,54.7
2018-10-05T08:07:15.667Z,54.9
2018-10-05T08:08:05.702Z,55.1
2018-10-05T08:08:55.799Z,55.2
2018-10-05T08:09:45.985Z,55.4
2018-10-05T08:10:35.401Z,55.5
2018-10-05T08:11:25.479Z,55.7
2018-10-05T08:12:15.541Z,55.9
2018-10-05T08:13:05.602Z,56.1
2018-10-05T08:13:55.644Z,56.2
2018-10-05T08:14:45.721Z,56.4
2018-10-05T08:15:35.786Z,56.6
2018-10-05T08:16:25.832Z,56.7
2018-10-05T08:17:16.091Z,56.8
2018-10-05T08:18:05.984Z,56.9
2018-10-05T08:18:56.026Z,57.1
2018-10-05T08:19:46.569Z,57.3
2018-10-05T08:20:36.628Z,57.4
2018-10-05T08:21:26.900Z,57.6
2018-10-05T08:23:06.533Z,57.9
2018-10-05T08:23:56.886Z,58.1
2018-10-05T08:24:47.240Z,58.2
2018-10-05T08:25:37.006Z,58.3
2018-10-05T08:26:26.498Z,58.5
2018-10-05T08:27:17.439Z,58.6
2018-10-05T08:28:07.206Z,58.8
2018-10-05T08:28:56.956Z,58.9
2018-10-05T08:29:47.333Z,59.1
2018-10-05T08:30:37.361Z,59.2
2018-10-05T08:31:27.423Z,59.3
2018-10-05T08:32:17.239Z,59.4
2018-10-05T08:33:07.825Z,59.6
2018-10-05T08:33:57.941Z,59.8
2018-10-05T08:34:47.411Z,59.9
2018-10-05T08:35:37.175Z,59.9
2018-10-05T08:36:27.819Z,60.1
2018-10-05T08:37:17.613Z,60.3
2018-10-05T08:38:07.925Z,60.4
2018-10-05T08:38:57.702Z,60.5
2018-10-05T08:39:48.364Z,60.6
2018-10-05T08:40:38.123Z,60.8
2018-10-05T08:41:27.905Z,60.9
2018-10-05T08:42:18.483Z,61
2018-10-05T08:43:08.300Z,61.2
2018-10-05T08:43:58.355Z,61.3
2018-10-05T08:44:48.441Z,61.4
2018-10-05T08:45:38.257Z,61.5
2018-10-05T08:46:28.260Z,61.6
2018-10-05T08:47:18.592Z,61.8
2018-10-05T08:48:08.399Z,61.9
2018-10-05T08:48:58.164Z,62
2018-10-05T08:49:48.817Z,62.1
2018-10-05T08:50:38.588Z,62.3
2018-10-05T08:51:28.953Z,62.4
2018-10-05T08:52:19.351Z,62.4
2018-10-05T09:08:37.471Z,64.4
2018-10-05T09:09:27.526Z,64.5
2018-10-05T09:10:17.831Z,64.6
2018-10-05T09:11:07.758Z,64.8
2018-10-05T09:11:57.715Z,64.8
2018-10-05T09:12:48.033Z,64.9
2018-10-05T09:13:37.826Z,65
2018-10-05T09:14:27.605Z,65.1
2018-10-05T09:15:17.657Z,65.2
2018-10-05T09:16:07.996Z,65.3
2018-10-05T09:16:58.068Z,65.3
2018-10-05T09:17:48.043Z,65.4
2018-10-05T09:18:38.465Z,65.5
2018-10-05T09:19:27.966Z,65.6
2018-10-05T09:20:18.322Z,65.6
2018-10-05T09:21:08.378Z,65.8
2018-10-05T09:21:58.435Z,65.8
2018-10-05T09:22:48.492Z,65.9
2018-10-05T09:23:38.821Z,65.9
2018-10-05T09:24:28.634Z,66.1
2018-10-05T09:25:18.497Z,66.1
2018-10-05T09:26:08.733Z,66.2
2018-10-05T09:26:58.518Z,66.3
2018-10-05T09:27:48.875Z,66.4
2018-10-05T09:28:38.657Z,66.4
2018-10-05T09:29:28.982Z,66.4
2018-10-05T09:30:19.069Z,66.6
2018-10-05T09:31:09.127Z,66.6
2018-10-05T09:31:59.190Z,66.7
2018-10-05T09:32:48.664Z,66.8
2018-10-05T09:33:39.004Z,66.8
2018-10-05T09:34:29.369Z,66.8
2018-10-05T09:35:18.859Z,66.9
2018-10-05T09:36:09.754Z,67
2018-10-05T09:36:59.551Z,67.1
2018-10-05T09:37:49.919Z,67.2
2018-10-05T09:38:39.396Z,67.3
2018-10-05T09:39:29.444Z,67.3
2018-10-05T09:40:19.779Z,67.4
2018-10-05T09:41:09.519Z,67.4
2018-10-05T09:41:59.626Z,67.4
2018-10-05T09:42:49.991Z,67.5
2018-10-05T09:43:39.746Z,67.6
2018-10-05T09:44:30.106Z,67.7
2018-10-05T09:45:20.079Z,67.8
2018-10-05T09:46:10.484Z,67.8
2018-10-05T09:47:00.289Z,67.9
2018-10-05T09:47:49.856Z,67.9
2018-10-05T09:48:39.913Z,68
2018-10-05T09:49:29.701Z,68.1
2018-10-05T09:50:20.044Z,68.2
2018-10-05T09:51:10.843Z,68.2
2018-10-05T09:52:00.351Z,68.3
2018-10-05T09:52:50.451Z,68.3
2018-10-05T09:53:40.281Z,68.4
2018-10-05T09:54:30.843Z,68.4
2018-10-05T09:55:20.140Z,68.5
2018-10-05T09:56:10.511Z,68.6
2018-10-05T09:57:00.534Z,68.7
2018-10-05T09:57:50.721Z,68.8
2018-10-05T09:58:40.671Z,68.8
2018-10-05T09:59:30.710Z,68.8
2018-10-05T10:00:20.235Z,68.9
2018-10-05T10:01:11.095Z,69
2018-10-05T10:02:00.891Z,69.1
2018-10-05T10:02:51.175Z,69.1
2018-10-05T10:03:41.029Z,69.1
2018-10-05T10:04:31.094Z,69.2
2018-10-05T10:05:21.145Z,69.3
2018-10-05T10:06:10.939Z,69.3
2018-10-05T10:07:01.268Z,69.4
2018-10-05T10:07:51.526Z,69.4
2018-10-05T10:08:41.122Z,69.5
2018-10-05T10:09:31.185Z,69.6
2018-10-05T10:10:21.537Z,69.6
2018-10-05T10:11:11.315Z,69.5
2018-10-05T10:12:02.143Z,69.5
2018-10-05T10:12:51.419Z,69.6
2018-10-05T10:13:41.864Z,69.6
2018-10-05T10:14:32.287Z,69.7
2018-10-05T10:15:22.417Z,69.8
2018-10-05T10:16:12.201Z,69.9
2018-10-05T10:17:02.005Z,69.9
2018-10-05T10:17:52.581Z,70
2018-10-05T10:18:42.660Z,70.1
2018-10-05T10:19:32.679Z,70.1
2018-10-05T10:20:22.739Z,70.3
2018-10-05T10:21:12.699Z,70.3
2018-10-05T10:22:02.589Z,70.4
2018-10-05T10:22:52.944Z,70.4
2018-10-05T10:23:42.444Z,70.5
2018-10-05T10:24:33.054Z,70.6
2018-10-05T10:25:22.849Z,70.6
2018-10-05T10:26:13.183Z,70.7
2018-10-05T10:27:03.231Z,70.8
2018-10-05T10:27:53.133Z,70.8
2018-10-05T10:28:44.021Z,70.9
2018-10-05T10:29:33.989Z,71
2018-10-05T10:30:23.487Z,71.1
2018-10-05T10:31:13.560Z,71.1
2018-10-05T10:32:03.613Z,71.1
2018-10-05T10:32:53.391Z,71.1
2018-10-05T10:33:44.149Z,71.3
2018-10-05T10:34:34.225Z,71.3
2018-10-05T10:35:23.849Z,71.4
2018-10-05T10:36:13.947Z,71.4
2018-10-05T10:37:04.004Z,71.5
2018-10-05T10:37:54.034Z,71.5
2018-10-05T10:38:44.128Z,71.6
2018-10-05T10:39:34.420Z,71.6
2018-10-05T10:40:24.229Z,71.7
2018-10-05T10:41:14.289Z,71.8
2018-10-05T10:42:04.071Z,71.9
2018-10-05T10:42:53.843Z,71.9
2018-10-05T10:43:44.474Z,71.9
2018-10-05T10:44:34.262Z,72
2018-10-05T10:45:24.606Z,72.1
2018-10-05T10:46:14.653Z,72.1
2018-10-05T10:47:04.445Z,72.2
2018-10-05T10:47:54.795Z,72.3
2018-10-05T10:48:44.269Z,72.3
2018-10-05T10:49:34.918Z,72.4
2018-10-05T10:50:24.966Z,72.4
2018-10-05T10:51:14.746Z,72.4
2018-10-05T10:52:05.142Z,72.5
2018-10-05T10:52:54.925Z,72.5
2018-10-05T10:53:45.218Z,72.5
2018-10-05T10:54:34.998Z,72.5
2018-10-05T10:55:25.060Z,72.6
2018-10-05T10:56:15.828Z,72.6
2018-10-05T10:57:05.177Z,72.6
2018-10-05T10:57:55.520Z,72.7
2018-10-05T10:58:45.580Z,72.7
2018-10-05T10:59:35.355Z,72.8
2018-10-05T11:00:25.417Z,72.8
2018-10-05T11:01:15.778Z,72.9
2018-10-05T11:02:05.842Z,72.9
2018-10-05T11:02:55.979Z,72.9
2018-10-05T11:03:45.970Z,73
2018-10-05T11:04:36.495Z,73.1
2018-10-05T11:05:26.102Z,73.1
2018-10-05T11:06:16.132Z,73.1
2018-10-05T11:07:05.927Z,73.1
2018-10-05T11:07:56.313Z,73.1
2018-10-05T11:08:46.352Z,73.2
2018-10-05T11:09:36.427Z,73.2
2018-10-05T11:10:26.204Z,73.3
2018-10-05T11:11:16.265Z,73.3
2018-10-05T11:12:06.600Z,73.2
2018-10-05T11:12:56.632Z,73.2
2018-10-05T11:13:46.686Z,73.2
2018-10-05T11:14:36.480Z,73.1
2018-10-05T11:15:26.816Z,73
2018-10-05T11:16:16.874Z,73
2018-10-05T11:17:07.379Z,73.1
2018-10-05T11:17:56.720Z,73.1
2018-10-05T11:18:46.771Z,73.2
2018-10-05T11:19:37.139Z,73.2
2018-10-05T11:20:27.184Z,73.3
2018-10-05T11:21:17.259Z,73.3
2018-10-05T11:22:07.301Z,73.3
2018-10-05T11:22:57.629Z,73.3
2018-10-05T11:23:47.436Z,73.3
2018-10-05T11:24:37.503Z,73.4
2018-10-05T11:25:27.556Z,73.4
2018-10-05T11:26:17.608Z,73.4
2018-10-05T11:27:07.674Z,73.5
2018-10-05T11:27:57.736Z,73.5
2018-10-05T11:28:47.793Z,73.6
2018-10-05T11:29:38.112Z,73.6
2018-10-05T11:30:27.945Z,73.7
2018-10-05T11:31:17.983Z,73.7
2018-10-05T11:32:08.048Z,73.8
2018-10-05T11:32:58.127Z,73.8
2018-10-05T11:33:48.170Z,73.8
2018-10-05T11:34:38.230Z,73.8
2018-10-05T11:35:28.005Z,73.9
2018-10-05T11:36:18.376Z,73.9
2018-10-05T11:37:08.443Z,73.9
2018-10-05T11:37:57.995Z,74
2018-10-05T11:38:48.850Z,74
2018-10-05T11:39:38.115Z,74.1
2018-10-05T11:40:28.441Z,74.1
2018-10-05T11:41:17.955Z,74.1
2018-10-05T11:42:08.297Z,74.2
2018-10-05T11:42:58.373Z,74.2
2018-10-05T11:43:48.437Z,74.2
2018-10-05T11:44:38.485Z,74.3
2018-10-05T11:45:28.560Z,74.3
2018-10-05T11:46:18.750Z,74.3
2018-10-05T11:47:08.683Z,74.3
2018-10-05T11:47:58.737Z,74.4
2018-10-05T11:48:48.797Z,74.4
2018-10-05T11:49:39.344Z,74.4
2018-10-05T11:50:28.676Z,74.4
2018-10-05T11:51:19.020Z,74.5
2018-10-05T11:52:09.076Z,74.5
2018-10-05T11:52:58.849Z,74.5
2018-10-05T11:53:49.192Z,74.5
2018-10-05T11:54:39.264Z,74.5
2018-10-05T11:55:29.332Z,74.5
2018-10-05T11:56:19.880Z,74.6
2018-10-05T11:57:09.451Z,74.6
2018-10-05T11:57:59.717Z,74.5
2018-10-05T11:58:50.057Z,74.5
2018-10-05T11:59:39.672Z,74.6
2018-10-05T12:00:29.908Z,74.5
2018-10-05T12:01:20.235Z,74.5
2018-10-05T12:02:10.313Z,74.6
2018-10-05T12:03:00.373Z,74.6
2018-10-05T12:03:50.684Z,74.6
2018-10-05T12:04:40.513Z,74.6
2018-10-05T12:05:30.054Z,74.6
2018-10-05T12:06:20.622Z,74.6
2018-10-05T12:07:10.923Z,74.6
2018-10-05T12:08:00.789Z,74.6
2018-10-05T12:08:50.789Z,74.6
2018-10-05T12:09:40.897Z,74.6
2018-10-05T12:10:30.977Z,74.6
2018-10-05T12:11:21.060Z,74.6